createdAt,value
2023-05-30T00:00:50.489Z,67.99
2023-05-30T00:06:06.724Z,68.22
2023-05-30T00:11:10.934Z,68.58
2023-05-30T00:16:15.376Z,68.84
2023-05-30T00:21:19.108Z,68.94
2023-05-30T00:26:22.119Z,68.73
2023-05-30T00:31:25.286Z,68.97
2023-05-30T00:36:28.336Z,69.58
2023-05-30T00:41:31.303Z,70.08
2023-05-30T00:46:34.216Z,70.31
2023-05-30T00:51:37.444Z,70.62
2023-05-30T00:56:40.298Z,70.72
2023-05-30T01:01:44.606Z,70.55
2023-05-30T01:06:47.943Z,70.97
2023-05-30T01:12:06.062Z,71.39
2023-05-30T01:17:19.452Z,71.39
2023-05-30T01:22:34.376Z,70.69
2023-05-30T01:28:06.072Z,70.48
2023-05-30T01:33:10.003Z,70.91
2023-05-30T01:38:14.002Z,70.97
2023-05-30T01:43:50.440Z,71.42
2023-05-30T01:49:18.301Z,71.54
2023-05-30T01:54:22.849Z,71.93
2023-05-30T01:59:27.383Z,72.34
2023-05-30T02:04:31.623Z,72.88
2023-05-30T02:09:34.417Z,72.79
2023-05-30T02:14:37.650Z,73.28
2023-05-30T02:19:40.697Z,73.94
2023-05-30T02:24:43.482Z,74.48
2023-05-30T02:29:46.211Z,75.22
2023-05-30T02:34:49.185Z,76.00
2023-05-30T02:39:51.905Z,76.30
2023-05-30T02:44:54.745Z,76.81
2023-05-30T02:49:57.596Z,77.30
2023-05-30T02:55:00.381Z,77.56
2023-05-30T03:00:03.718Z,77.95
2023-05-30T03:05:07.367Z,78.20
2023-05-30T03:10:10.583Z,78.41
2023-05-30T03:15:13.513Z,78.82
2023-05-30T03:20:17.335Z,79.43
2023-05-30T03:25:21.351Z,79.63
2023-05-30T03:30:27.819Z,79.89
2023-05-30T03:35:31.055Z,79.59
2023-05-30T03:40:34.687Z,79.75
2023-05-30T03:45:37.417Z,80.36
2023-05-30T03:50:40.134Z,80.44
2023-05-30T03:55:42.894Z,80.64
2023-05-30T04:00:45.639Z,80.57
2023-05-30T04:05:50.546Z,79.91
2023-05-30T04:10:53.805Z,79.99
2023-05-30T04:15:56.605Z,80.33
2023-05-30T04:20:59.953Z,80.29
2023-05-30T04:26:02.987Z,80.48
2023-05-30T04:31:20.220Z,80.22
2023-05-30T04:36:24.324Z,80.40
2023-05-30T04:41:27.269Z,80.50
2023-05-30T04:46:30.906Z,79.84
2023-05-30T04:51:34.221Z,79.94
2023-05-30T04:56:37.111Z,79.76
2023-05-30T05:01:42.585Z,79.85
2023-05-30T05:06:45.507Z,79.68
2023-05-30T05:11:48.471Z,79.38
2023-05-30T05:16:51.222Z,79.51
2023-05-30T05:21:57.266Z,79.49
2023-05-30T05:27:00.172Z,79.29
2023-05-30T05:32:03.150Z,79.07
2023-05-30T05:37:06.797Z,78.17
2023-05-30T05:42:09.624Z,77.09
2023-05-30T05:47:12.433Z,76.13
2023-05-30T05:52:15.214Z,76.27
2023-05-30T05:57:17.983Z,75.56
2023-05-30T06:02:20.776Z,74.92
2023-05-30T06:07:24.629Z,74.01
2023-05-30T06:12:27.633Z,72.45
2023-05-30T06:17:31.228Z,71.64
2023-05-30T06:22:36.582Z,71.02
2023-05-30T06:27:39.384Z,69.52
2023-05-30T06:32:43.997Z,67.81
2023-05-30T06:37:47.015Z,67.03
2023-05-30T06:42:49.880Z,65.46
2023-05-30T06:47:52.738Z,63.29
2023-05-30T06:52:55.875Z,60.28
2023-05-30T06:57:58.700Z,57.31
2023-05-30T07:03:02.296Z,55.44
2023-05-30T07:08:05.420Z,53.68
2023-05-30T07:13:08.320Z,53.45
2023-05-30T07:18:11.223Z,52.18
2023-05-30T07:23:14.079Z,50.86
2023-05-30T07:28:18.409Z,48.87
2023-05-30T07:33:21.464Z,47.34
2023-05-30T07:38:24.225Z,47.32
2023-05-30T07:43:29.489Z,46.19
2023-05-30T07:48:33.105Z,44.69
2023-05-30T07:53:36.007Z,41.41
2023-05-30T07:58:38.752Z,40.89
2023-05-30T08:03:41.741Z,39.64
2023-05-30T08:08:44.899Z,38.57
2023-05-30T08:13:48.892Z,38.66
2023-05-30T08:18:52.512Z,38.40
2023-05-30T08:23:56.591Z,37.12
2023-05-30T08:29:01.061Z,35.51
2023-05-30T08:34:05.101Z,35.15
2023-05-30T08:39:14.933Z,35.38
2023-05-30T08:44:18.146Z,34.94
2023-05-30T08:49:26.036Z,34.15
2023-05-30T08:59:42.986Z,33.50
2023-05-30T09:04:47.178Z,33.29
2023-05-30T09:09:52.347Z,32.49
2023-05-30T09:14:55.168Z,31.91
2023-05-30T09:19:58.282Z,30.42
2023-05-30T09:25:05.068Z,30.56
2023-05-30T09:30:11.802Z,31.03
2023-05-30T09:35:14.869Z,31.14
2023-05-30T09:40:18.189Z,30.73
2023-05-30T09:45:25.679Z,30.79
2023-05-30T09:50:31.851Z,30.26
2023-05-30T09:55:34.605Z,30.40
2023-05-30T10:00:37.451Z,30.08
2023-05-30T10:05:40.368Z,29.93
2023-05-30T10:10:52.761Z,29.64
2023-05-30T10:15:55.992Z,29.39
2023-05-30T10:21:01.519Z,29.49
2023-05-30T10:26:06.426Z,29.80
2023-05-30T10:31:12.826Z,29.00
2023-05-30T10:36:21.270Z,29.28
2023-05-30T10:41:36.318Z,28.83
2023-05-30T10:47:19.315Z,28.55
2023-05-30T10:52:32.715Z,28.52
2023-05-30T10:57:36.286Z,28.49
2023-05-30T11:02:40.240Z,27.48
2023-05-30T11:07:44.532Z,27.54
2023-05-30T11:12:49.304Z,27.43
2023-05-30T11:17:53.652Z,26.67
2023-05-30T11:23:03.333Z,26.65
2023-05-30T11:28:07.308Z,26.66
2023-05-30T11:33:19.238Z,26.55
2023-05-30T11:39:33.064Z,26.38
2023-05-30T11:44:37.462Z,26.65
2023-05-30T11:49:42.700Z,25.85
2023-05-30T11:54:48.384Z,25.94
2023-05-30T11:59:51.316Z,25.45
2023-05-30T12:05:02.406Z,25.57
2023-05-30T12:10:06.022Z,25.27
2023-05-30T12:15:10.336Z,25.59
2023-05-30T12:20:18.436Z,25.77
2023-05-30T12:25:28.567Z,25.78
2023-05-30T12:30:36.011Z,25.54
2023-05-30T12:35:40.855Z,25.05
2023-05-30T12:40:52.083Z,25.11
2023-05-30T12:46:10.349Z,24.96
2023-05-30T12:51:15.994Z,24.73
2023-05-30T12:56:24.361Z,24.51
2023-05-30T13:01:31.280Z,24.18
2023-05-30T13:06:34.075Z,23.62
2023-05-30T13:11:37.010Z,24.43
2023-05-30T13:16:40.172Z,24.49
2023-05-30T13:21:44.830Z,23.99
2023-05-30T13:26:47.678Z,24.20
2023-05-30T13:31:50.640Z,24.92
2023-05-30T13:36:53.742Z,24.80
2023-05-30T13:41:56.774Z,24.91
2023-05-30T13:46:59.639Z,24.94
2023-05-30T13:52:05.200Z,24.60
2023-05-30T13:57:08.962Z,24.61
2023-05-30T14:02:11.777Z,25.40
2023-05-30T14:07:15.838Z,25.81
2023-05-30T14:12:18.784Z,25.77
2023-05-30T14:17:21.552Z,25.36
2023-05-30T14:22:24.277Z,25.45
2023-05-30T14:27:27.041Z,25.75
2023-05-30T14:32:30.314Z,25.81
2023-05-30T14:37:33.054Z,25.71
2023-05-30T14:42:36.176Z,25.26
2023-05-30T14:47:38.984Z,25.37
2023-05-30T14:52:41.731Z,25.10
2023-05-30T14:57:44.487Z,25.64
2023-05-30T15:02:47.348Z,26.25
2023-05-30T15:07:51.243Z,26.06
2023-05-30T15:12:54.072Z,25.55
2023-05-30T15:17:57.227Z,25.83
2023-05-30T15:23:00.022Z,25.96
2023-05-30T15:28:03.181Z,25.66
2023-05-30T15:33:06.094Z,25.86
2023-05-30T15:38:08.992Z,25.93
2023-05-30T15:43:12.323Z,25.77
2023-05-30T15:48:15.234Z,25.97
2023-05-30T15:53:17.939Z,26.48
2023-05-30T15:58:20.945Z,25.81
2023-05-30T16:03:23.718Z,25.69
2023-05-30T16:08:26.534Z,25.85
2023-05-30T16:13:29.294Z,26.17
2023-05-30T16:18:32.067Z,26.54
2023-05-30T16:23:35.038Z,26.98
2023-05-30T16:28:37.819Z,27.20
2023-05-30T16:33:40.612Z,27.60
2023-05-30T16:38:43.409Z,27.84
2023-05-30T16:43:48.035Z,27.96
2023-05-30T16:48:50.853Z,28.26
2023-05-30T16:53:56.272Z,28.58
2023-05-30T16:59:00.540Z,28.82
2023-05-30T17:04:03.677Z,29.01
2023-05-30T17:09:10.154Z,29.57
2023-05-30T17:14:14.691Z,29.89
2023-05-30T17:19:28.528Z,30.00
2023-05-30T17:24:32.179Z,30.36
2023-05-30T17:29:37.116Z,30.76
2023-05-30T17:34:39.901Z,31.01
2023-05-30T17:39:42.807Z,31.11
2023-05-30T17:44:45.571Z,31.42
2023-05-30T17:49:48.303Z,31.88
2023-05-30T17:54:53.713Z,32.46
2023-05-30T17:59:57.138Z,33.12
2023-05-30T18:05:03.066Z,33.33
2023-05-30T18:10:06.183Z,33.15
2023-05-30T18:15:10.286Z,32.97
2023-05-30T18:20:13.521Z,33.19
2023-05-30T18:25:16.344Z,33.63
2023-05-30T18:30:19.096Z,33.80
2023-05-30T18:35:21.955Z,34.31
2023-05-30T18:40:24.972Z,34.65
2023-05-30T18:45:27.791Z,35.00
2023-05-30T18:50:30.793Z,35.21
2023-05-30T18:55:33.754Z,35.69
2023-05-30T19:00:36.497Z,36.11
2023-05-30T19:05:40.236Z,36.37
2023-05-30T19:10:43.259Z,36.79
2023-05-30T19:15:46.118Z,37.17
2023-05-30T19:20:50.685Z,37.70
2023-05-30T19:25:54.483Z,37.87
2023-05-30T19:30:57.196Z,38.30
2023-05-30T19:36:00.181Z,39.06
2023-05-30T19:41:03.983Z,39.81
2023-05-30T19:46:08.534Z,40.34
2023-05-30T19:51:11.613Z,40.64
2023-05-30T19:56:14.389Z,41.35
2023-05-30T20:01:17.328Z,41.81
2023-05-30T20:06:20.739Z,42.25
2023-05-30T20:11:23.537Z,42.81
2023-05-30T20:16:26.502Z,42.82
2023-05-30T20:21:29.566Z,42.93
2023-05-30T20:26:33.201Z,42.80
2023-05-30T20:31:36.289Z,42.75
2023-05-30T20:36:39.135Z,42.86
2023-05-30T20:41:41.981Z,43.08
2023-05-30T20:46:45.230Z,43.20
2023-05-30T20:51:48.236Z,43.20
2023-05-30T20:56:51.097Z,43.57
2023-05-30T21:01:53.918Z,43.65
2023-05-30T21:06:56.782Z,43.75
2023-05-30T21:11:59.551Z,43.90
2023-05-30T21:17:02.435Z,44.03
2023-05-30T21:22:05.809Z,44.28
2023-05-30T21:27:08.607Z,44.40
2023-05-30T21:32:11.466Z,44.91
2023-05-30T21:37:14.333Z,45.34
2023-05-30T21:42:17.173Z,45.58
2023-05-30T21:47:19.904Z,46.32
2023-05-30T21:52:27.201Z,46.70
2023-05-30T21:57:30.331Z,46.91
2023-05-30T22:02:33.105Z,47.23
2023-05-30T22:07:35.950Z,47.42
2023-05-30T22:12:38.829Z,47.78
2023-05-30T22:17:41.597Z,48.17
2023-05-30T22:22:44.684Z,48.32
2023-05-30T22:27:47.609Z,48.87
2023-05-30T22:32:50.643Z,49.14
2023-05-30T22:37:53.439Z,49.59
2023-05-30T22:42:56.410Z,49.74
2023-05-30T22:47:59.484Z,50.10
2023-05-30T22:53:02.369Z,50.52
2023-05-30T22:58:05.127Z,50.86
2023-05-30T23:03:13.106Z,50.89
2023-05-30T23:08:16.088Z,51.12
2023-05-30T23:13:20.119Z,51.17
2023-05-30T23:18:22.849Z,51.36
2023-05-30T23:23:25.661Z,51.60
2023-05-30T23:28:28.488Z,51.83
2023-05-30T23:33:31.746Z,52.17
2023-05-30T23:38:34.574Z,52.55
2023-05-30T23:43:38.255Z,52.73
2023-05-30T23:48:41.084Z,53.27
2023-05-30T23:53:44.539Z,53.52
2023-05-30T23:58:47.340Z,54.03
